Terminal Aerodrome Forecast
Issued by NWS Springfield, MO

Home | Current Version | Previous Version | Text Only | Print | Product List | Glossary On
Versions: 1 2 3 4 5 6 7 8 9 10 11 12
000
FTUS43 KSGF 282324
TAFSGF
TAF
KSGF 282324Z 2900/2924 12006KT P6SM FEW050
     FM290200 VRB04KT P6SM SKC
     FM291000 VRB04KT 4SM BR SKC
     FM291400 14006KT P6SM SCT050=

USA.gov is the U.S. government's official web portal to all federal, state and local government web resources and services.